createdAt,value
2018-02-23T00:01:01.190Z,1.45
2018-02-23T00:03:28.709Z,1.36
2018-02-23T00:05:56.630Z,1.30
2018-02-23T00:08:24.151Z,1.30
2018-02-23T00:10:51.666Z,1.25
2018-02-23T00:13:19.218Z,1.26
2018-02-23T00:15:46.927Z,1.19
2018-02-23T00:18:14.611Z,1.10
2018-02-23T00:20:42.121Z,1.13
2018-02-23T00:23:09.935Z,1.24
2018-02-23T00:25:37.461Z,1.14
2018-02-23T00:28:05.257Z,1.01
2018-02-23T00:30:33.127Z,1.06
2018-02-23T00:33:00.671Z,1.02
2018-02-23T00:35:28.461Z,0.98
2018-02-23T00:37:56.023Z,0.81
2018-02-23T00:40:23.591Z,0.78
2018-02-23T00:42:51.131Z,0.77
2018-02-23T00:45:18.650Z,0.74
2018-02-23T00:47:46.213Z,0.74
2018-02-23T00:50:14.126Z,0.78
2018-02-23T00:52:41.672Z,0.79
2018-02-23T00:55:09.234Z,0.78
2018-02-23T00:57:36.786Z,0.74
2018-02-23T01:00:04.351Z,0.68
2018-02-23T01:02:32.135Z,0.72
2018-02-23T01:04:59.665Z,0.71
2018-02-23T01:07:27.461Z,0.65
2018-02-23T01:09:54.993Z,0.67
2018-02-23T01:12:22.598Z,0.61
2018-02-23T01:14:50.151Z,0.63
2018-02-23T01:17:18.249Z,0.57
2018-02-23T01:19:46.082Z,0.55
2018-02-23T01:22:13.618Z,0.54
2018-02-23T01:24:41.157Z,0.48
2018-02-23T01:27:08.717Z,0.48
2018-02-23T01:29:36.270Z,0.49
2018-02-23T01:32:03.901Z,0.54
2018-02-23T01:34:31.755Z,0.51
2018-02-23T01:36:59.307Z,0.48
2018-02-23T01:39:26.861Z,0.49
2018-02-23T01:41:54.398Z,0.48
2018-02-23T01:44:21.977Z,0.44
2018-02-23T01:46:49.508Z,0.47
2018-02-23T01:49:17.328Z,0.44
2018-02-23T01:51:44.867Z,0.43
2018-02-23T01:54:12.439Z,0.45
2018-02-23T01:56:40.318Z,0.43
2018-02-23T01:59:07.838Z,0.38
2018-02-23T02:01:35.639Z,0.41
2018-02-23T02:04:03.193Z,0.32
2018-02-23T02:06:30.710Z,0.32
2018-02-23T02:08:58.262Z,0.29
2018-02-23T02:11:25.853Z,0.19
2018-02-23T02:13:53.395Z,0.18
2018-02-23T02:16:20.952Z,0.14
2018-02-23T02:18:48.770Z,0.12
2018-02-23T02:21:16.337Z,0.11
2018-02-23T02:23:44.015Z,0.11
2018-02-23T02:26:11.534Z,0.04
2018-02-23T02:28:39.144Z,0.05
2018-02-23T02:31:06.727Z,0.04
2018-02-23T02:33:34.543Z,0.00
2018-02-23T02:36:02.077Z,-0.03
2018-02-23T02:38:29.649Z,-0.06
2018-02-23T02:40:57.549Z,-0.07
2018-02-23T02:43:25.114Z,-0.08
2018-02-23T02:45:52.662Z,-0.14
2018-02-23T02:48:20.528Z,-0.17
2018-02-23T02:50:48.072Z,-0.17
2018-02-23T02:53:15.856Z,-0.18
2018-02-23T02:55:43.400Z,-0.15
2018-02-23T02:58:10.951Z,-0.10
2018-02-23T03:00:38.475Z,-0.24
2018-02-23T03:03:06.189Z,-0.24
2018-02-23T03:05:33.756Z,-0.34
2018-02-23T03:08:01.322Z,-0.40
2018-02-23T03:10:29.103Z,-0.44
2018-02-23T03:12:56.954Z,-0.43
2018-02-23T03:15:24.535Z,-0.49
2018-02-23T03:17:52.073Z,-0.55
2018-02-23T03:20:19.630Z,-0.58
2018-02-23T03:22:47.194Z,-0.57
2018-02-23T03:25:14.801Z,-0.56
2018-02-23T03:27:42.337Z,-0.61
2018-02-23T03:30:09.888Z,-0.64
2018-02-23T03:32:37.643Z,-0.61
2018-02-23T03:35:05.296Z,-0.63
2018-02-23T03:37:32.845Z,-0.57
2018-02-23T03:40:00.395Z,-0.62
2018-02-23T03:42:27.970Z,-0.63
2018-02-23T03:44:55.498Z,-0.69
2018-02-23T03:47:23.033Z,-0.68
2018-02-23T03:49:50.640Z,-0.74
2018-02-23T03:52:18.175Z,-0.70
2018-02-23T03:54:45.710Z,-0.73
2018-02-23T03:57:13.282Z,-0.75
2018-02-23T03:59:41.127Z,-0.76
2018-02-23T04:02:08.709Z,-0.74
2018-02-23T04:04:36.547Z,-0.82
2018-02-23T04:07:04.146Z,-0.86
2018-02-23T04:09:31.979Z,-0.88
2018-02-23T04:11:59.539Z,-0.90
2018-02-23T04:14:27.086Z,-0.96
2018-02-23T04:16:54.662Z,-0.96
2018-02-23T04:19:29.078Z,-0.97
2018-02-23T04:21:56.962Z,-1.02
2018-02-23T04:24:24.502Z,-1.00
2018-02-23T04:26:52.064Z,-0.94
2018-02-23T04:29:19.626Z,-0.93
2018-02-23T04:31:47.251Z,-0.99
2018-02-23T04:34:14.860Z,-1.12
2018-02-23T04:36:42.398Z,-1.18
2018-02-23T04:39:10.132Z,-1.14
2018-02-23T04:41:37.678Z,-1.12
2018-02-23T04:44:05.212Z,-1.12
2018-02-23T04:46:32.762Z,-1.17
2018-02-23T04:49:00.304Z,-1.24
2018-02-23T04:51:27.857Z,-1.23
2018-02-23T04:53:55.389Z,-1.25
2018-02-23T04:56:22.938Z,-1.19
2018-02-23T04:58:50.469Z,-1.17
2018-02-23T05:01:18.039Z,-1.16
2018-02-23T05:03:45.696Z,-1.18
2018-02-23T05:06:13.555Z,-1.23
2018-02-23T05:08:41.083Z,-1.29
2018-02-23T05:11:08.675Z,-1.35
2018-02-23T05:13:36.254Z,-1.39
2018-02-23T05:16:03.792Z,-1.33
2018-02-23T05:18:31.360Z,-1.39
2018-02-23T05:20:58.893Z,-1.37
2018-02-23T05:23:26.438Z,-1.30
2018-02-23T05:25:54.036Z,-1.35
2018-02-23T05:28:21.654Z,-1.35
2018-02-23T05:30:49.227Z,-1.35
2018-02-23T05:33:16.762Z,-1.46
2018-02-23T05:35:44.321Z,-1.54
2018-02-23T05:38:11.883Z,-1.62
2018-02-23T05:40:39.532Z,-1.59
2018-02-23T05:43:07.145Z,-1.63
2018-02-23T05:45:35.655Z,-1.64
2018-02-23T05:48:03.229Z,-1.71
2018-02-23T05:50:30.805Z,-1.81
2018-02-23T05:52:58.467Z,-1.79
2018-02-23T05:55:26.211Z,-1.83
2018-02-23T05:57:53.835Z,-1.74
2018-02-23T06:00:21.392Z,-1.75
2018-02-23T06:02:49.290Z,-1.81
2018-02-23T06:05:16.855Z,-1.85
2018-02-23T06:07:44.438Z,-1.87
2018-02-23T06:10:11.994Z,-1.76
2018-02-23T06:12:39.549Z,-1.78
2018-02-23T06:15:07.404Z,-1.85
2018-02-23T06:17:40.584Z,-1.86
2018-02-23T06:20:08.189Z,-1.87
2018-02-23T06:22:35.785Z,-1.91
2018-02-23T06:25:03.328Z,-1.89
2018-02-23T06:27:30.899Z,-1.90
2018-02-23T06:29:58.447Z,-1.94
2018-02-23T06:32:25.999Z,-2.01
2018-02-23T06:34:53.611Z,-1.97
2018-02-23T06:37:21.170Z,-1.87
2018-02-23T06:39:48.717Z,-1.98
2018-02-23T06:42:16.293Z,-2.09
2018-02-23T06:44:43.897Z,-2.11
2018-02-23T06:47:12.174Z,-2.19
2018-02-23T06:49:39.749Z,-2.26
2018-02-23T06:52:07.332Z,-2.22
2018-02-23T06:54:34.940Z,-2.21
2018-02-23T06:57:02.493Z,-2.25
2018-02-23T06:59:30.057Z,-2.40
2018-02-23T07:01:57.675Z,-2.60
2018-02-23T07:04:25.483Z,-2.51
2018-02-23T07:06:53.029Z,-2.40
2018-02-23T07:09:20.595Z,-2.37
2018-02-23T07:11:48.573Z,-2.38
2018-02-23T07:14:16.143Z,-2.33
2018-02-23T07:16:43.683Z,-2.29
2018-02-23T07:19:11.283Z,-2.26
2018-02-23T07:21:39.181Z,-2.29
2018-02-23T07:24:06.879Z,-2.28
2018-02-23T07:26:35.765Z,-2.22
2018-02-23T07:29:03.357Z,-2.50
2018-02-23T07:31:30.905Z,-2.56
2018-02-23T07:33:58.480Z,-2.51
2018-02-23T07:36:26.027Z,-2.62
2018-02-23T07:38:53.605Z,-2.46
2018-02-23T07:41:21.447Z,-2.34
2018-02-23T07:43:49.018Z,-2.17
2018-02-23T07:46:16.545Z,-2.00
2018-02-23T07:48:44.129Z,-1.99
2018-02-23T07:51:12.066Z,-1.91
2018-02-23T07:53:39.642Z,-1.82
2018-02-23T07:56:07.190Z,-1.84
2018-02-23T07:58:34.751Z,-1.76
2018-02-23T08:01:02.326Z,-1.75
2018-02-23T08:03:30.024Z,-1.75
2018-02-23T08:05:57.878Z,-1.71
2018-02-23T08:08:25.602Z,-1.77
2018-02-23T08:10:53.211Z,-1.89
2018-02-23T08:13:20.744Z,-1.86
2018-02-23T08:15:48.474Z,-1.76
2018-02-23T08:18:16.016Z,-1.71
2018-02-23T08:20:43.604Z,-1.71
2018-02-23T08:23:11.226Z,-1.78
2018-02-23T08:25:38.839Z,-1.90
2018-02-23T08:28:06.765Z,-1.71
2018-02-23T08:30:34.353Z,-1.65
2018-02-23T08:33:01.894Z,-1.59
2018-02-23T08:35:29.494Z,-1.51
2018-02-23T08:37:57.135Z,-1.44
2018-02-23T08:40:24.692Z,-1.49
2018-02-23T08:42:52.230Z,-1.47
2018-02-23T08:45:19.766Z,-1.37
2018-02-23T08:47:53.283Z,-1.28
2018-02-23T08:50:20.892Z,-1.37
2018-02-23T08:52:48.587Z,-1.23
2018-02-23T08:55:16.156Z,-1.27
2018-02-23T08:57:43.705Z,-1.40
2018-02-23T09:00:20.105Z,-1.40
2018-02-23T09:02:47.755Z,-1.26
2018-02-23T09:08:00.964Z,-0.95
2018-02-23T09:10:28.548Z,-0.88
2018-02-23T09:12:56.107Z,-0.80
2018-02-23T09:15:23.758Z,-0.82
2018-02-23T09:17:51.286Z,-0.78
2018-02-23T09:20:19.949Z,-0.92
2018-02-23T09:22:47.597Z,-0.66
2018-02-23T09:25:15.162Z,-0.83
2018-02-23T09:27:42.907Z,-0.81
2018-02-23T09:30:10.457Z,-0.72
2018-02-23T09:32:38.973Z,-0.63
2018-02-23T09:35:06.529Z,-0.49
2018-02-23T09:37:34.108Z,-0.53
2018-02-23T09:40:01.636Z,-0.51
2018-02-23T09:42:29.160Z,-0.33
2018-02-23T09:44:56.762Z,-0.29
2018-02-23T09:47:24.278Z,-0.20
2018-02-23T09:49:51.840Z,-0.02
2018-02-23T09:52:19.369Z,0.07
2018-02-23T09:54:46.917Z,-0.02
2018-02-23T09:57:14.696Z,0.00
2018-02-23T09:59:42.346Z,0.06
2018-02-23T10:02:09.871Z,0.13
2018-02-23T10:04:37.408Z,0.12
2018-02-23T10:07:04.926Z,0.15
2018-02-23T10:09:32.484Z,0.17
2018-02-23T10:12:00.027Z,0.23
2018-02-23T10:14:27.578Z,0.47
2018-02-23T10:16:55.386Z,0.50
2018-02-23T10:19:23.179Z,0.46
2018-02-23T10:21:50.778Z,0.57
2018-02-23T10:24:18.571Z,0.32
2018-02-23T10:26:46.120Z,0.45
2018-02-23T10:29:13.659Z,0.73
2018-02-23T10:31:41.216Z,0.85
2018-02-23T10:34:08.730Z,0.69
2018-02-23T10:36:36.389Z,0.72
2018-02-23T10:39:04.015Z,0.71
2018-02-23T10:41:31.879Z,1.04
2018-02-23T10:44:00.125Z,1.11
2018-02-23T10:46:28.868Z,1.26
2018-02-23T10:48:58.075Z,1.48
2018-02-23T10:51:26.027Z,1.53
2018-02-23T10:53:53.579Z,1.44
2018-02-23T10:56:21.145Z,1.76
2018-02-23T10:58:48.705Z,1.15
2018-02-23T11:01:17.231Z,0.85
2018-02-23T11:03:45.737Z,0.97
2018-02-23T11:06:13.983Z,0.93
2018-02-23T11:08:43.181Z,1.15
2018-02-23T11:11:12.603Z,0.99
2018-02-23T11:13:42.359Z,0.79
2018-02-23T11:16:10.025Z,0.91
2018-02-23T11:18:37.646Z,1.05
2018-02-23T11:21:05.189Z,1.44
2018-02-23T11:23:32.772Z,1.68
2018-02-23T11:26:00.576Z,1.88
2018-02-23T11:28:28.127Z,1.87
2018-02-23T11:30:55.689Z,1.90
2018-02-23T11:33:23.214Z,1.92
2018-02-23T11:35:50.788Z,1.79
2018-02-23T11:38:18.331Z,1.89
2018-02-23T11:40:46.138Z,1.80
2018-02-23T11:43:14.023Z,1.40
2018-02-23T11:45:41.675Z,1.80
2018-02-23T11:48:09.397Z,1.57
2018-02-23T11:50:36.953Z,1.81
2018-02-23T11:53:04.552Z,1.93
2018-02-23T11:55:32.175Z,1.99
2018-02-23T11:58:05.192Z,2.06
2018-02-23T12:00:32.828Z,2.30
2018-02-23T12:03:00.419Z,2.50
2018-02-23T12:05:28.025Z,2.49
2018-02-23T12:07:55.567Z,2.76
2018-02-23T12:10:23.123Z,2.54
2018-02-23T12:12:50.854Z,1.86
2018-02-23T12:15:18.412Z,1.94
2018-02-23T12:17:46.018Z,1.82
2018-02-23T12:20:13.871Z,1.60
2018-02-23T12:22:41.419Z,1.79
2018-02-23T12:25:08.958Z,1.74
2018-02-23T12:27:36.573Z,1.66
2018-02-23T12:30:04.105Z,1.95
2018-02-23T12:32:31.661Z,1.89
2018-02-23T12:34:59.351Z,2.04
2018-02-23T12:37:26.928Z,2.21
2018-02-23T12:39:54.497Z,2.28
2018-02-23T12:42:22.037Z,1.91
2018-02-23T12:44:49.656Z,1.74
2018-02-23T12:47:17.202Z,1.71
2018-02-23T12:49:44.796Z,1.97
2018-02-23T12:52:12.340Z,2.04
2018-02-23T12:54:39.910Z,2.19
2018-02-23T12:57:07.466Z,2.02
2018-02-23T12:59:35.003Z,1.97
2018-02-23T13:02:02.563Z,2.03
2018-02-23T13:04:30.178Z,2.09
2018-02-23T13:06:57.748Z,2.08
2018-02-23T13:09:25.325Z,2.01
2018-02-23T13:11:52.901Z,2.00
2018-02-23T13:14:20.482Z,2.10
2018-02-23T13:16:48.080Z,2.16
2018-02-23T13:19:15.622Z,1.98
2018-02-23T13:21:43.180Z,1.77
2018-02-23T13:24:10.708Z,1.69
2018-02-23T13:26:38.527Z,1.71
2018-02-23T13:29:06.074Z,1.70
2018-02-23T13:31:33.673Z,1.60
2018-02-23T13:34:01.225Z,1.40
2018-02-23T13:36:29.100Z,1.38
2018-02-23T13:38:56.671Z,1.43
2018-02-23T13:41:30.225Z,1.33
2018-02-23T13:43:57.755Z,1.21
2018-02-23T13:46:25.314Z,1.30
2018-02-23T13:48:52.865Z,1.36
2018-02-23T13:51:20.674Z,1.32
2018-02-23T13:53:48.549Z,1.40
2018-02-23T13:56:16.064Z,1.48
2018-02-23T13:58:43.619Z,1.52
2018-02-23T14:01:11.243Z,1.58
2018-02-23T14:03:38.783Z,1.55
2018-02-23T14:06:06.310Z,1.54
2018-02-23T14:08:33.853Z,1.30
2018-02-23T14:11:01.681Z,1.32
2018-02-23T14:13:29.553Z,1.37
2018-02-23T14:15:57.108Z,1.30
2018-02-23T14:18:24.985Z,1.18
2018-02-23T14:20:52.554Z,1.18
2018-02-23T14:23:20.117Z,1.32
2018-02-23T14:25:47.627Z,1.42
2018-02-23T14:28:15.179Z,1.49
2018-02-23T14:30:42.705Z,1.62
2018-02-23T14:33:10.332Z,1.63
2018-02-23T14:35:37.858Z,1.79
2018-02-23T14:38:05.662Z,2.71
2018-02-23T14:40:33.254Z,4.12
2018-02-23T14:43:00.835Z,5.14
2018-02-23T14:45:28.345Z,5.01
2018-02-23T14:47:55.902Z,4.86
2018-02-23T14:50:35.395Z,4.83
2018-02-23T14:53:02.921Z,4.81
2018-02-23T14:55:30.571Z,4.95
2018-02-23T14:57:58.106Z,4.59
2018-02-23T15:00:25.635Z,3.47
2018-02-23T15:02:53.204Z,2.76
2018-02-23T15:05:21.808Z,2.48
2018-02-23T15:07:49.379Z,2.00
2018-02-23T15:10:16.934Z,1.92
2018-02-23T15:12:44.477Z,1.78
2018-02-23T15:15:12.292Z,1.62
2018-02-23T15:17:39.859Z,1.58
2018-02-23T15:20:07.410Z,1.48
2018-02-23T15:22:39.058Z,1.32
2018-02-23T15:25:06.606Z,1.25
2018-02-23T15:27:34.583Z,1.14
2018-02-23T15:30:02.152Z,1.11
2018-02-23T15:32:30.555Z,1.10
2018-02-23T15:34:58.120Z,1.05
2018-02-23T15:37:25.956Z,0.97
2018-02-23T15:39:53.727Z,1.00
2018-02-23T15:42:21.295Z,0.80
2018-02-23T15:44:48.828Z,0.76
2018-02-23T15:47:16.440Z,0.72
2018-02-23T15:52:46.616Z,0.69
2018-02-23T15:55:14.195Z,0.75
2018-02-23T15:57:47.430Z,0.72
2018-02-23T16:00:14.984Z,0.66
2018-02-23T16:02:42.517Z,0.61
2018-02-23T16:05:10.172Z,0.64
2018-02-23T16:07:37.816Z,0.66
2018-02-23T16:10:05.413Z,0.48
2018-02-23T16:12:32.968Z,0.38
2018-02-23T16:15:00.504Z,0.35
2018-02-23T16:17:28.074Z,0.34
2018-02-23T16:19:55.593Z,0.38
2018-02-23T16:22:23.134Z,0.39
2018-02-23T16:24:50.781Z,0.35
2018-02-23T16:27:18.643Z,0.28
2018-02-23T16:29:46.517Z,0.25
2018-02-23T16:32:14.035Z,0.26
2018-02-23T16:34:41.612Z,0.17
2018-02-23T16:37:09.186Z,0.20
2018-02-23T16:39:36.755Z,0.16
2018-02-23T16:42:04.345Z,0.21
2018-02-23T16:44:31.925Z,0.19
2018-02-23T16:46:59.753Z,0.20
2018-02-23T16:49:27.319Z,0.22
2018-02-23T16:51:55.296Z,0.16
2018-02-23T16:54:22.959Z,0.11
2018-02-23T16:56:50.513Z,0.12
2018-02-23T16:59:18.093Z,0.07
2018-02-23T17:01:45.792Z,0.11
2018-02-23T17:04:13.372Z,0.09
2018-02-23T17:06:40.924Z,0.02
2018-02-23T17:09:08.482Z,-0.04
2018-02-23T17:11:36.183Z,-0.04
2018-02-23T17:14:04.196Z,-0.10
2018-02-23T17:16:31.790Z,0.00
2018-02-23T17:18:59.574Z,-0.04
2018-02-23T17:21:28.326Z,-0.10
2018-02-23T17:23:55.916Z,-0.12
2018-02-23T17:26:23.446Z,-0.18
2018-02-23T17:28:51.042Z,-0.17
2018-02-23T17:31:20.207Z,-0.21
2018-02-23T17:33:48.037Z,-0.23
2018-02-23T17:36:15.877Z,-0.26
2018-02-23T17:38:43.666Z,-0.24
2018-02-23T17:41:11.515Z,-0.24
2018-02-23T17:43:39.090Z,-0.19
2018-02-23T17:46:06.710Z,-0.11
2018-02-23T17:48:34.359Z,-0.10
2018-02-23T17:51:01.966Z,-0.09
2018-02-23T17:53:29.602Z,-0.17
2018-02-23T17:55:57.518Z,-0.29
2018-02-23T17:58:25.108Z,-0.28
2018-02-23T18:00:53.019Z,-0.33
2018-02-23T18:03:20.624Z,-0.29
2018-02-23T18:05:48.178Z,-0.33
2018-02-23T18:08:15.731Z,-0.37
2018-02-23T18:10:43.482Z,-0.37
2018-02-23T18:13:11.340Z,-0.32
2018-02-23T18:15:38.930Z,-0.36
2018-02-23T18:18:06.532Z,-0.36
2018-02-23T18:20:34.136Z,-0.37
2018-02-23T18:23:01.680Z,-0.44
2018-02-23T18:25:29.238Z,-0.36
2018-02-23T18:27:57.108Z,-0.34
2018-02-23T18:30:24.675Z,-0.38
2018-02-23T18:32:52.560Z,-0.44
2018-02-23T18:35:20.200Z,-0.42
2018-02-23T18:37:47.793Z,-0.43
2018-02-23T18:40:15.394Z,-0.45
2018-02-23T18:42:43.313Z,-0.56
2018-02-23T18:45:10.844Z,-0.58
2018-02-23T18:47:38.378Z,-0.53
2018-02-23T18:50:06.293Z,-0.60
2018-02-23T18:52:34.148Z,-0.56
2018-02-23T18:55:01.684Z,-0.53
2018-02-23T18:57:29.317Z,-0.55
2018-02-23T18:59:56.919Z,-0.59
2018-02-23T19:02:24.519Z,-0.57
2018-02-23T19:04:52.063Z,-0.59
2018-02-23T19:07:19.898Z,-0.59
2018-02-23T19:09:47.808Z,-0.56
2018-02-23T19:12:15.398Z,-0.61
2018-02-23T19:14:42.991Z,-0.61
2018-02-23T19:17:10.632Z,-0.63
2018-02-23T19:19:38.345Z,-0.64
2018-02-23T19:22:06.718Z,-0.67
2018-02-23T19:24:34.307Z,-0.69
2018-02-23T19:27:01.861Z,-0.73
2018-02-23T19:29:29.830Z,-0.73
2018-02-23T19:31:57.414Z,-0.74
2018-02-23T19:34:26.195Z,-0.73
2018-02-23T19:36:54.459Z,-0.75
2018-02-23T19:39:21.997Z,-0.75
2018-02-23T19:41:49.655Z,-0.75
2018-02-23T19:44:17.204Z,-0.69
2018-02-23T19:46:44.757Z,-0.81
2018-02-23T19:49:12.370Z,-0.77
2018-02-23T19:51:40.094Z,-0.86
2018-02-23T19:54:07.663Z,-0.89
2018-02-23T19:56:35.562Z,-0.92
2018-02-23T19:59:03.215Z,-0.99
2018-02-23T20:01:30.805Z,-1.01
2018-02-23T20:03:58.399Z,-0.93
2018-02-23T20:06:26.166Z,-0.93
2018-02-23T20:08:53.932Z,-0.93
2018-02-23T20:11:21.492Z,-0.91
2018-02-23T20:13:49.307Z,-0.87
2018-02-23T20:16:17.074Z,-0.88
2018-02-23T20:18:45.019Z,-0.91
2018-02-23T20:21:12.655Z,-0.89
2018-02-23T20:23:40.203Z,-0.88
2018-02-23T20:26:07.915Z,-0.87
2018-02-23T20:28:36.445Z,-0.91
2018-02-23T20:31:04.004Z,-0.93
2018-02-23T20:33:31.594Z,-0.89
2018-02-23T20:35:59.156Z,-0.91
2018-02-23T20:38:26.940Z,-0.91
2018-02-23T20:40:54.543Z,-0.92
2018-02-23T20:43:22.574Z,-0.89
2018-02-23T20:45:50.246Z,-0.92
2018-02-23T20:48:17.878Z,-0.88
2018-02-23T20:50:46.528Z,-0.89
2018-02-23T20:53:14.122Z,-0.91
2018-02-23T20:55:42.027Z,-0.89
2018-02-23T20:58:09.578Z,-0.97
2018-02-23T21:00:37.116Z,-0.89
2018-02-23T21:03:05.004Z,-0.96
2018-02-23T21:05:32.546Z,-0.97
2018-02-23T21:08:00.104Z,-0.95
2018-02-23T21:10:27.640Z,-0.92
2018-02-23T21:12:55.179Z,-0.97
2018-02-23T21:15:22.739Z,-0.95
2018-02-23T21:17:50.283Z,-1.02
2018-02-23T21:20:17.891Z,-0.96
2018-02-23T21:22:45.685Z,-0.99
2018-02-23T21:25:13.226Z,-1.02
2018-02-23T21:27:40.889Z,-1.01
2018-02-23T21:30:08.388Z,-1.00
2018-02-23T21:32:35.917Z,-1.01
2018-02-23T21:35:03.501Z,-1.00
2018-02-23T21:37:31.041Z,-1.04
2018-02-23T21:39:58.934Z,-1.02
2018-02-23T21:42:26.496Z,-1.00
2018-02-23T21:44:54.048Z,-1.02
2018-02-23T21:47:21.623Z,-1.01
2018-02-23T21:49:49.156Z,-1.01
2018-02-23T21:52:16.702Z,-1.08
2018-02-23T21:54:44.298Z,-1.06
2018-02-23T21:57:11.885Z,-1.05
2018-02-23T21:59:39.487Z,-1.04
2018-02-23T22:02:07.047Z,-1.01
2018-02-23T22:04:34.640Z,-1.01
2018-02-23T22:07:02.298Z,-1.10
2018-02-23T22:09:29.845Z,-1.12
2018-02-23T22:11:57.426Z,-1.14
2018-02-23T22:14:25.219Z,-1.17
2018-02-23T22:16:52.812Z,-1.10
2018-02-23T22:19:20.334Z,-1.08
2018-02-23T22:21:47.915Z,-1.16
2018-02-23T22:24:15.855Z,-1.13
2018-02-23T22:26:43.481Z,-1.17
2018-02-23T22:29:11.493Z,-1.08
2018-02-23T22:31:39.149Z,-1.17
2018-02-23T22:34:06.694Z,-1.13
2018-02-23T22:36:34.244Z,-1.19
2018-02-23T22:39:01.815Z,-1.21
2018-02-23T22:41:29.395Z,-1.27
2018-02-23T22:43:56.990Z,-1.27
2018-02-23T22:46:24.522Z,-1.32
2018-02-23T22:48:52.302Z,-1.27
2018-02-23T22:51:19.902Z,-1.22
2018-02-23T22:53:47.450Z,-1.21
2018-02-23T22:56:15.009Z,-1.30
2018-02-23T22:58:42.595Z,-1.34
2018-02-23T23:01:10.193Z,-1.32
2018-02-23T23:03:37.760Z,-1.38
2018-02-23T23:06:05.286Z,-1.39
2018-02-23T23:08:32.816Z,-1.42
2018-02-23T23:11:00.506Z,-1.39
2018-02-23T23:13:28.073Z,-1.32
2018-02-23T23:15:55.665Z,-1.35
2018-02-23T23:18:23.213Z,-1.39
2018-02-23T23:20:51.058Z,-1.30
2018-02-23T23:23:18.928Z,-1.37
2018-02-23T23:25:46.483Z,-1.41
2018-02-23T23:28:14.027Z,-1.40
2018-02-23T23:30:41.812Z,-1.38
2018-02-23T23:33:09.353Z,-1.31
2018-02-23T23:35:36.922Z,-1.35
2018-02-23T23:38:04.477Z,-1.36
2018-02-23T23:40:32.269Z,-1.35
2018-02-23T23:43:00.140Z,-1.38
2018-02-23T23:45:27.667Z,-1.29
2018-02-23T23:47:55.203Z,-1.30
2018-02-23T23:50:22.766Z,-1.36
2018-02-23T23:52:50.290Z,-1.41
2018-02-23T23:55:17.861Z,-1.45
2018-02-23T23:57:45.399Z,-1.40
